Time;durP1;ratioP1;P1;durP2;ratioP2;P2;SDS_P1;SDS_P2;PMS_P1;PMS_P2;Temp;Humidity;BMP_temperature;BMP_pressure;BME280_temperature;BME280_humidity;BME280_pressure;Samples;Min_cycle;Max_cycle;Signal;HPM_P1;HPM_P2
2022/11/14 00:00:29;;;;;;;0.52;0.52;;;4.90;99.90;;;;;;5036777;28;20440;-71
2022/11/14 00:02:58;;;;;;;0.50;0.50;;;5.00;99.90;;;;;;5036498;28;20738;-70
2022/11/14 00:05:23;;;;;;;0.40;0.40;;;5.00;99.90;;;;;;5036827;28;20324;-71
2022/11/14 00:07:49;;;;;;;0.30;0.30;;;5.00;99.90;;;;;;5036847;28;20203;-70
2022/11/14 00:10:16;;;;;;;0.40;0.40;;;4.90;99.90;;;;;;5036214;28;20244;-69
2022/11/14 00:12:41;;;;;;;0.40;0.40;;;4.80;99.90;;;;;;5036087;28;20198;-69
2022/11/14 00:15:08;;;;;;;0.60;0.60;;;4.70;99.90;;;;;;5036184;28;20163;-71
2022/11/14 00:17:34;;;;;;;0.40;0.40;;;4.70;99.90;;;;;;5035905;28;20191;-69
2022/11/14 00:19:59;;;;;;;0.40;0.40;;;4.70;99.90;;;;;;5036467;28;20215;-68
2022/11/14 00:22:25;;;;;;;0.30;0.30;;;4.80;99.90;;;;;;5036611;28;20658;-68
2022/11/14 00:24:50;;;;;;;0.40;0.40;;;4.80;99.90;;;;;;5035834;28;20217;-68
2022/11/14 00:27:16;;;;;;;0.80;0.80;;;4.80;99.90;;;;;;5036109;28;20193;-71
2022/11/14 00:29:42;;;;;;;0.30;0.30;;;4.90;99.90;;;;;;5036112;28;20213;-68
2022/11/14 00:32:08;;;;;;;1.38;1.38;;;5.00;99.90;;;;;;5036092;28;20190;-71
2022/11/14 00:34:34;;;;;;;0.40;0.40;;;4.90;99.90;;;;;;5036148;28;20174;-72
2022/11/14 00:36:59;;;;;;;0.55;0.55;;;4.80;99.90;;;;;;5036263;28;20167;-71
2022/11/14 00:39:25;;;;;;;0.30;0.30;;;4.80;99.90;;;;;;5035595;28;20209;-71
2022/11/14 00:41:51;;;;;;;0.30;0.30;;;4.80;99.90;;;;;;5017987;28;20628;-69
2022/11/14 00:44:16;;;;;;;0.40;0.40;;;4.90;99.90;;;;;;5035663;28;20182;-69
2022/11/14 00:46:42;;;;;;;1.70;1.60;;;5.00;99.90;;;;;;5035926;28;20235;-71
2022/11/14 00:49:08;;;;;;;1.00;0.57;;;5.00;99.90;;;;;;5035721;28;20702;-69
2022/11/14 00:51:33;;;;;;;0.40;0.40;;;5.00;99.90;;;;;;5035929;28;20299;-73
2022/11/14 00:53:59;;;;;;;0.37;0.37;;;4.90;99.90;;;;;;5035386;28;20751;-68
2022/11/14 00:56:25;;;;;;;0.77;0.77;;;4.90;99.90;;;;;;5035495;28;20177;-70
2022/11/14 00:58:50;;;;;;;0.40;0.40;;;5.00;99.90;;;;;;5017715;28;20265;-72
2022/11/14 01:01:16;;;;;;;0.40;0.40;;;5.00;99.90;;;;;;5035688;28;20229;-70
2022/11/14 01:03:42;;;;;;;0.30;0.30;;;5.00;99.90;;;;;;5035078;28;20175;-72
2022/11/14 01:06:10;;;;;;;1.53;0.50;;;5.00;99.90;;;;;;5035246;28;20175;-71
2022/11/14 01:08:35;;;;;;;0.50;0.50;;;5.30;99.90;;;;;;5035252;28;20210;-70
2022/11/14 01:11:12;;;;;;;0.30;0.30;;;5.10;99.90;;;;;;5035201;28;20194;-69
2022/11/14 01:13:38;;;;;;;0.30;0.30;;;5.10;99.90;;;;;;5034859;28;20547;-71
2022/11/14 01:16:04;;;;;;;0.40;0.40;;;5.00;99.90;;;;;;5035423;28;20634;-69
2022/11/14 01:18:30;;;;;;;0.85;0.85;;;5.10;99.90;;;;;;5035328;28;20181;-70
2022/11/14 01:20:56;;;;;;;0.57;0.57;;;5.10;99.90;;;;;;5034896;28;20209;-69
2022/11/14 01:23:21;;;;;;;0.40;0.40;;;5.10;99.90;;;;;;5034547;28;20556;-72
2022/11/14 01:25:47;;;;;;;0.40;0.40;;;4.80;99.90;;;;;;5035021;28;20529;-66
2022/11/14 01:28:18;;;;;;;0.40;0.40;;;5.10;99.90;;;;;;5034155;28;20167;-71
2022/11/14 01:30:44;;;;;;;0.40;0.40;;;5.10;99.90;;;;;;5035189;28;20190;-69
2022/11/14 01:33:10;;;;;;;0.30;0.30;;;5.00;99.90;;;;;;5034781;28;20293;-72
2022/11/14 01:35:37;;;;;;;0.40;0.40;;;5.00;99.90;;;;;;5034689;28;20258;-69
2022/11/14 01:38:04;;;;;;;0.32;0.32;;;4.80;99.90;;;;;;5034307;28;20425;-70
2022/11/14 01:40:31;;;;;;;0.40;0.40;;;5.10;99.90;;;;;;5034762;28;20191;-68
2022/11/14 01:43:15;;;;;;;0.40;0.40;;;5.10;99.90;;;;;;5034524;28;20219;-67
2022/11/14 01:45:55;;;;;;;0.30;0.30;;;5.00;99.90;;;;;;5034976;28;20166;-71
2022/11/14 01:48:44;;;;;;;0.30;0.30;;;4.90;99.90;;;;;;5034634;28;20190;-70
2022/11/14 01:51:24;;;;;;;0.40;0.40;;;4.90;99.90;;;;;;5034563;28;20662;-70
2022/11/14 01:53:53;;;;;;;0.40;0.40;;;4.80;99.90;;;;;;5016550;28;20264;-70
2022/11/14 01:56:25;;;;;;;0.50;0.50;;;4.80;99.90;;;;;;5034369;28;20185;-70
2022/11/14 01:59:02;;;;;;;0.40;0.40;;;4.80;99.90;;;;;;5034218;28;20198;-68
2022/11/14 02:01:31;;;;;;;0.40;0.40;;;4.90;99.90;;;;;;5034531;28;20155;-71
2022/11/14 02:03:59;;;;;;;0.40;0.40;;;4.90;99.90;;;;;;5034219;28;20189;-73
2022/11/14 02:06:27;;;;;;;3.90;0.55;;;4.90;99.90;;;;;;5034349;28;20168;-70
2022/11/14 02:08:55;;;;;;;0.40;0.40;;;4.90;99.90;;;;;;5016204;28;20643;-71
2022/11/14 02:11:21;;;;;;;0.60;0.60;;;5.00;99.90;;;;;;5034034;28;20268;-72
2022/11/14 02:13:46;;;;;;;0.50;0.50;;;5.00;99.90;;;;;;5033601;28;20207;-68
2022/11/14 02:16:12;;;;;;;1.13;0.50;;;5.10;99.90;;;;;;5034290;28;20217;-69
2022/11/14 02:18:38;;;;;;;0.80;0.60;;;5.00;99.90;;;;;;5034262;28;20765;-72
2022/11/14 02:21:04;;;;;;;0.30;0.30;;;5.00;99.90;;;;;;5034413;28;20405;-69
2022/11/14 02:23:31;;;;;;;0.70;0.70;;;5.00;99.90;;;;;;5033580;28;20163;-69
2022/11/14 02:25:57;;;;;;;0.65;0.65;;;5.10;99.90;;;;;;5034065;28;20173;-70
2022/11/14 02:28:24;;;;;;;0.85;0.85;;;5.20;99.90;;;;;;5033982;28;20202;-71
2022/11/14 02:30:49;;;;;;;0.40;0.40;;;5.20;99.90;;;;;;5034393;28;20224;-70
2022/11/14 02:33:15;;;;;;;0.37;0.37;;;5.20;99.90;;;;;;5016044;28;20257;-70
2022/11/14 02:35:41;;;;;;;0.40;0.40;;;5.30;99.90;;;;;;5034190;28;20199;-71
2022/11/14 02:38:07;;;;;;;0.83;0.77;;;5.30;99.90;;;;;;5033493;28;20429;-69
2022/11/14 02:40:33;;;;;;;0.40;0.40;;;5.30;99.90;;;;;;5033107;28;20604;-71
2022/11/14 02:42:59;;;;;;;0.40;0.40;;;5.20;99.90;;;;;;5033491;28;20240;-71
2022/11/14 02:45:25;;;;;;;0.43;0.43;;;5.30;99.90;;;;;;5033611;28;20171;-69
2022/11/14 02:47:50;;;;;;;0.40;0.40;;;5.20;99.90;;;;;;5034089;28;20262;-70
2022/11/14 02:50:17;;;;;;;0.40;0.40;;;5.10;99.90;;;;;;5033552;28;20524;-72
2022/11/14 02:52:42;;;;;;;0.40;0.40;;;5.00;99.90;;;;;;5033234;28;20289;-69
2022/11/14 02:55:08;;;;;;;0.40;0.40;;;5.00;99.90;;;;;;5033803;28;20191;-69
2022/11/14 02:57:34;;;;;;;0.50;0.50;;;5.10;99.90;;;;;;5033376;28;20167;-70
2022/11/14 03:00:00;;;;;;;0.80;0.80;;;5.10;99.90;;;;;;5033731;28;20187;-70
2022/11/14 03:02:25;;;;;;;0.40;0.40;;;5.20;99.90;;;;;;5033922;28;20237;-68
2022/11/14 03:04:51;;;;;;;0.50;0.50;;;5.30;99.90;;;;;;5033756;28;20195;-70
2022/11/14 03:07:17;;;;;;;0.60;0.60;;;5.30;99.90;;;;;;5033843;28;20178;-71
2022/11/14 03:09:43;;;;;;;0.40;0.40;;;5.40;99.90;;;;;;5033455;28;20937;-69
2022/11/14 03:12:08;;;;;;;0.40;0.40;;;5.40;99.90;;;;;;5015871;28;20563;-72
2022/11/14 03:14:34;;;;;;;0.40;0.40;;;5.50;99.90;;;;;;5033593;28;20171;-69
2022/11/14 03:17:00;;;;;;;0.43;0.43;;;5.50;99.90;;;;;;5033630;28;20222;-70
2022/11/14 03:19:25;;;;;;;2.83;0.60;;;5.50;99.90;;;;;;5033427;28;20687;-70
2022/11/14 03:21:51;;;;;;;0.50;0.50;;;5.60;99.90;;;;;;5033220;28;20175;-72
2022/11/14 03:24:17;;;;;;;0.40;0.40;;;5.60;99.90;;;;;;5033174;28;20258;-71
2022/11/14 03:26:43;;;;;;;1.50;1.40;;;5.50;99.90;;;;;;5033435;28;20274;-70
2022/11/14 03:29:08;;;;;;;1.67;1.57;;;5.60;99.90;;;;;;5033034;28;20233;-69
2022/11/14 03:31:34;;;;;;;0.93;0.93;;;5.60;99.90;;;;;;5033635;28;20197;-69
2022/11/14 03:33:59;;;;;;;0.30;0.30;;;5.60;99.90;;;;;;5033241;28;20202;-68
2022/11/14 03:36:25;;;;;;;0.40;0.40;;;5.60;99.90;;;;;;5033120;28;20206;-68
2022/11/14 03:38:51;;;;;;;0.60;0.60;;;5.70;99.90;;;;;;5032999;28;20679;-72
2022/11/14 03:41:16;;;;;;;0.60;0.60;;;5.70;99.90;;;;;;5033626;28;20208;-70
2022/11/14 03:43:42;;;;;;;0.40;0.40;;;5.70;99.90;;;;;;5032840;28;20174;-69
2022/11/14 03:46:08;;;;;;;0.33;0.33;;;5.80;99.90;;;;;;5033487;28;20398;-67
2022/11/14 03:48:33;;;;;;;0.30;0.30;;;5.90;99.90;;;;;;5033444;28;20167;-71
2022/11/14 03:50:59;;;;;;;0.60;0.60;;;5.90;99.90;;;;;;5033555;28;20536;-68
2022/11/14 03:53:25;;;;;;;0.40;0.40;;;5.90;99.90;;;;;;5036353;28;20170;-70
2022/11/14 03:55:51;;;;;;;0.60;0.60;;;5.90;99.90;;;;;;5036749;28;20167;-72
2022/11/14 03:58:16;;;;;;;0.40;0.40;;;6.00;99.90;;;;;;5036505;28;20751;-68
2022/11/14 04:00:42;;;;;;;6.23;1.00;;;6.10;99.90;;;;;;5036200;28;20422;-69
2022/11/14 04:03:08;;;;;;;1.90;1.00;;;6.00;99.90;;;;;;5036580;28;20178;-71
2022/11/14 04:05:33;;;;;;;0.30;0.30;;;6.00;99.90;;;;;;5036470;28;20176;-66
2022/11/14 04:07:59;;;;;;;0.40;0.40;;;6.10;99.90;;;;;;5036416;28;20167;-68
2022/11/14 04:10:25;;;;;;;0.50;0.50;;;6.10;99.90;;;;;;5036113;28;20244;-70
2022/11/14 04:12:52;;;;;;;1.80;0.93;;;6.20;99.90;;;;;;5036322;28;20199;-71
2022/11/14 04:15:18;;;;;;;0.85;0.85;;;6.30;99.90;;;;;;5036597;28;20250;-68
2022/11/14 04:17:45;;;;;;;0.73;0.73;;;6.40;99.90;;;;;;5036650;28;20176;-69
2022/11/14 04:20:12;;;;;;;0.70;0.70;;;6.50;99.90;;;;;;5036016;28;20245;-71
2022/11/14 04:22:38;;;;;;;0.40;0.40;;;6.50;99.90;;;;;;5036159;28;20637;-72
2022/11/14 04:25:05;;;;;;;0.93;0.40;;;6.60;99.90;;;;;;5036200;28;20183;-69
2022/11/14 04:27:30;;;;;;;0.40;0.40;;;6.70;99.90;;;;;;5036223;28;20185;-71
2022/11/14 04:29:56;;;;;;;1.23;0.97;;;6.70;99.90;;;;;;5036286;28;20200;-69
2022/11/14 04:32:22;;;;;;;1.13;0.73;;;6.70;99.90;;;;;;5036352;28;20193;-69
2022/11/14 04:34:47;;;;;;;0.77;0.77;;;6.80;99.90;;;;;;5035668;28;20310;-70
2022/11/14 04:37:13;;;;;;;0.30;0.30;;;6.80;99.90;;;;;;5035821;28;20176;-72
2022/11/14 04:39:38;;;;;;;0.57;0.47;;;6.90;99.90;;;;;;5035885;28;20187;-69
2022/11/14 04:42:04;;;;;;;0.73;0.73;;;6.90;99.90;;;;;;5035582;28;20258;-67
2022/11/14 04:44:30;;;;;;;1.43;1.43;;;6.90;99.90;;;;;;5035537;28;20233;-70
2022/11/14 04:46:56;;;;;;;0.97;0.97;;;6.90;99.90;;;;;;5035577;28;20190;-68
2022/11/14 04:49:22;;;;;;;0.50;0.50;;;6.90;99.90;;;;;;5035362;28;20196;-67
2022/11/14 04:51:47;;;;;;;1.33;1.33;;;6.90;99.90;;;;;;5036210;28;20559;-71
2022/11/14 04:54:13;;;;;;;1.03;1.03;;;6.90;99.90;;;;;;5035371;28;20958;-69
2022/11/14 04:56:39;;;;;;;0.70;0.70;;;6.90;99.90;;;;;;5035568;28;20923;-70
2022/11/14 04:59:04;;;;;;;1.07;1.07;;;6.80;99.90;;;;;;5035724;28;20196;-70
2022/11/14 05:01:30;;;;;;;1.83;1.73;;;6.80;99.90;;;;;;5017263;28;20348;-68
2022/11/14 05:04:03;;;;;;;0.93;0.93;;;6.90;99.90;;;;;;5037146;28;20208;-71
2022/11/14 05:06:28;;;;;;;0.60;0.60;;;6.90;99.90;;;;;;5035973;28;20173;-68
2022/11/14 05:08:58;;;;;;;0.40;0.40;;;6.90;99.90;;;;;;5036165;28;20564;-69
2022/11/14 05:11:27;;;;;;;0.70;0.70;;;6.90;99.90;;;;;;5036984;28;20245;-70
2022/11/14 05:13:52;;;;;;;1.02;1.02;;;7.00;99.90;;;;;;5035063;28;20180;-70
2022/11/14 05:16:24;;;;;;;1.07;0.83;;;7.00;99.90;;;;;;5035706;28;20170;-70
2022/11/14 05:18:53;;;;;;;0.43;0.43;;;7.00;99.90;;;;;;5036320;28;20189;-68
2022/11/14 05:21:18;;;;;;;0.90;0.90;;;7.00;99.90;;;;;;5035822;28;20193;-71
2022/11/14 05:23:44;;;;;;;1.37;1.00;;;7.10;99.90;;;;;;5034230;28;20219;-70
2022/11/14 05:26:13;;;;;;;0.60;0.60;;;7.20;99.90;;;;;;5034978;28;20200;-68
2022/11/14 05:28:39;;;;;;;1.40;0.52;;;7.30;99.90;;;;;;5035106;28;20174;-66
2022/11/14 05:31:09;;;;;;;0.40;0.40;;;7.80;99.90;;;;;;5034969;28;20181;-66
2022/11/14 05:33:35;;;;;;;0.60;0.60;;;8.60;99.90;;;;;;5034319;28;20233;-66
2022/11/14 05:36:09;;;;;;;0.70;0.70;;;9.50;99.90;;;;;;5035016;28;20166;-66
2022/11/14 05:38:35;;;;;;;0.70;0.70;;;10.30;99.90;;;;;;5034489;28;20421;-66
2022/11/14 05:41:13;;;;;;;2.15;1.98;;;10.90;99.90;;;;;;5035118;28;20202;-66
2022/11/14 05:43:39;;;;;;;0.75;0.75;;;11.50;99.90;;;;;;5034375;28;20170;-66
2022/11/14 05:46:09;;;;;;;3.33;2.50;;;11.90;99.90;;;;;;5034772;28;20573;-66
2022/11/14 05:48:35;;;;;;;2.22;1.83;;;12.30;99.30;;;;;;5034931;28;20437;-68
2022/11/14 05:51:02;;;;;;;3.37;3.17;;;12.60;97.80;;;;;;5034737;28;20172;-70
2022/11/14 05:53:30;;;;;;;2.85;2.67;;;12.30;93.10;;;;;;5034499;28;20179;-71
2022/11/14 05:56:00;;;;;;;1.98;1.20;;;11.70;92.60;;;;;;5034503;28;20445;-70
2022/11/14 05:58:26;;;;;;;1.63;1.52;;;11.10;92.90;;;;;;5034877;28;20191;-70
2022/11/14 06:00:51;;;;;;;3.40;2.03;;;10.40;93.70;;;;;;5034064;28;20195;-72
2022/11/14 08:13:42;;;;;;;12.25;2.28;;;8.60;99.90;;;;;;4958508;28;20234;-69
2022/11/14 08:16:09;;;;;;;1.93;1.83;;;8.50;99.90;;;;;;4957815;28;20204;-69
2022/11/14 08:18:35;;;;;;;3.78;3.67;;;8.50;99.90;;;;;;4958292;28;20176;-68
2022/11/14 08:21:04;;;;;;;1.23;1.23;;;8.60;99.90;;;;;;4958569;28;20520;-69
2022/11/14 08:23:30;;;;;;;1.98;1.63;;;8.60;99.90;;;;;;4958465;28;20193;-67
2022/11/14 08:25:58;;;;;;;0.67;0.67;;;8.70;99.90;;;;;;4957992;28;20204;-68
2022/11/14 08:28:24;;;;;;;1.25;1.15;;;8.80;99.90;;;;;;4958365;28;20180;-68
2022/11/14 08:30:50;;;;;;;0.97;0.97;;;9.00;99.90;;;;;;4957979;28;20183;-68
2022/11/14 08:33:15;;;;;;;1.17;1.17;;;8.50;99.90;;;;;;4957772;28;20214;-69
2022/11/14 08:35:41;;;;;;;1.07;1.07;;;8.60;99.90;;;;;;4957853;28;20429;-69
2022/11/14 08:38:07;;;;;;;1.27;1.17;;;8.30;99.90;;;;;;4957168;28;20177;-70
2022/11/14 08:40:32;;;;;;;0.50;0.50;;;8.50;99.90;;;;;;4957289;28;20211;-69
2022/11/14 08:42:59;;;;;;;2.47;2.27;;;8.50;99.90;;;;;;4958093;28;20192;-68
2022/11/14 08:45:25;;;;;;;4.47;1.73;;;8.50;99.90;;;;;;4957422;28;20565;-67
2022/11/14 08:47:52;;;;;;;4.10;1.07;;;8.60;99.90;;;;;;4957264;28;20181;-70
2022/11/14 08:50:18;;;;;;;1.70;0.93;;;;;;;;;;4955509;28;20419;-67
2022/11/14 08:52:49;;;;;;;5.13;3.20;;;8.50;99.90;;;;;;4956043;29;20200;-70
2022/11/14 08:55:15;;;;;;;1.10;0.85;;;8.50;99.90;;;;;;4956724;28;20189;-69
2022/11/14 08:57:41;;;;;;;2.60;2.47;;;;;;;;;;4957646;28;20177;-67
2022/11/14 09:00:07;;;;;;;1.50;1.45;;;8.40;99.90;;;;;;4957000;29;20170;-67
2022/11/14 09:02:33;;;;;;;1.48;1.25;;;8.70;99.90;;;;;;4957817;28;20188;-67
2022/11/14 09:04:59;;;;;;;1.43;1.23;;;;;;;;;;4957162;28;20201;-68
2022/11/14 09:07:25;;;;;;;0.60;0.60;;;7.90;99.90;;;;;;4957185;29;20194;-69
2022/11/14 09:09:51;;;;;;;0.77;0.77;;;8.70;99.90;;;;;;4957100;28;20962;-68
2022/11/14 09:12:16;;;;;;;1.20;1.20;;;8.80;99.90;;;;;;4957231;28;20292;-67
2022/11/14 09:14:42;;;;;;;1.10;1.10;;;8.80;99.90;;;;;;4957381;28;20207;-68
2022/11/14 09:17:08;;;;;;;0.60;0.60;;;8.80;99.90;;;;;;4956912;28;20192;-69
2022/11/14 09:19:33;;;;;;;1.37;1.10;;;8.80;99.90;;;;;;4955771;29;20682;-69
2022/11/14 09:21:59;;;;;;;0.60;0.60;;;8.80;99.90;;;;;;4956795;28;20272;-69
2022/11/14 09:24:25;;;;;;;1.87;1.23;;;8.90;99.90;;;;;;4956722;28;20198;-68
2022/11/14 09:26:51;;;;;;;0.43;0.43;;;8.90;99.90;;;;;;4956813;28;20593;-69
2022/11/14 09:29:17;;;;;;;0.40;0.40;;;9.00;99.90;;;;;;4956810;28;20262;-66
2022/11/14 09:31:43;;;;;;;1.08;0.98;;;9.00;99.90;;;;;;4955669;29;20693;-66
2022/11/14 09:34:09;;;;;;;4.35;1.35;;;8.90;99.90;;;;;;4956547;28;20215;-66
2022/11/14 09:36:35;;;;;;;1.13;1.13;;;8.90;99.90;;;;;;4956897;28;20174;-67
2022/11/14 09:39:01;;;;;;;0.60;0.60;;;9.00;99.90;;;;;;4956389;28;20409;-66
2022/11/14 09:41:56;;;;;;;0.40;0.40;;;8.90;99.90;;;;;;4956833;28;20488;-66
2022/11/14 09:44:48;;;;;;;2.63;2.17;;;8.90;99.90;;;;;;4956797;28;20549;-67
2022/11/14 09:47:32;;;;;;;1.10;0.93;;;8.90;99.90;;;;;;4953701;29;20182;-66
2022/11/14 09:50:11;;;;;;;1.02;0.98;;;8.80;99.90;;;;;;4955353;28;20191;-68
2022/11/14 09:52:46;;;;;;;0.77;0.77;;;8.70;99.90;;;;;;4956881;28;20283;-66
2022/11/14 09:55:21;;;;;;;0.50;0.50;;;8.70;99.90;;;;;;4956305;28;20252;-68
2022/11/14 09:57:47;;;;;;;0.40;0.40;;;8.60;99.90;;;;;;4956761;28;20173;-66
2022/11/14 10:00:20;;;;;;;0.77;0.68;;;8.80;99.90;;;;;;4956392;28;20252;-68
2022/11/14 10:03:16;;;;;;;1.10;0.70;;;8.90;99.90;;;;;;4956533;28;20260;-66
2022/11/14 10:06:01;;;;;;;0.50;0.50;;;9.00;99.90;;;;;;4956306;28;20203;-67
2022/11/14 10:08:44;;;;;;;2.67;1.20;;;9.20;99.90;;;;;;4956378;28;20176;-68
2022/11/14 10:11:21;;;;;;;1.40;1.13;;;9.30;99.90;;;;;;4956389;28;20178;-67
2022/11/14 10:14:31;;;;;;;0.60;0.60;;;9.30;99.90;;;;;;4956504;28;20260;-67
2022/11/14 10:17:12;;;;;;;1.98;1.30;;;9.50;99.90;;;;;;4928398;28;20552;-67
2022/11/14 10:19:48;;;;;;;4.45;3.83;;;9.60;99.90;;;;;;4955911;28;20255;-66
2022/11/14 10:22:26;;;;;;;0.73;0.73;;;9.60;99.90;;;;;;4956091;28;20589;-67
2022/11/14 10:25:02;;;;;;;2.03;0.88;;;9.50;99.90;;;;;;4955939;28;20193;-67
2022/11/14 10:27:37;;;;;;;3.00;1.77;;;9.60;99.90;;;;;;4956143;28;20179;-66
2022/11/14 10:30:11;;;;;;;1.38;1.30;;;9.60;99.90;;;;;;4955250;28;20172;-68
2022/11/14 10:32:58;;;;;;;7.90;1.58;;;9.70;99.90;;;;;;4955841;28;20216;-67
2022/11/14 10:35:36;;;;;;;1.63;0.55;;;9.70;99.90;;;;;;4955578;28;20186;-67
2022/11/14 10:38:10;;;;;;;1.90;1.60;;;9.70;99.90;;;;;;4956000;28;20166;-66
2022/11/14 10:40:49;;;;;;;1.25;1.23;;;9.60;99.90;;;;;;4955620;28;20505;-67
2022/11/14 10:43:24;;;;;;;0.70;0.70;;;9.50;99.90;;;;;;4955636;28;20532;-67
2022/11/14 10:45:57;;;;;;;0.50;0.50;;;9.50;99.90;;;;;;4955817;28;20653;-67
2022/11/14 10:48:29;;;;;;;0.52;0.45;;;9.70;99.90;;;;;;4955895;28;20169;-67
2022/11/14 10:51:16;;;;;;;0.40;0.40;;;9.80;99.90;;;;;;4955879;28;20174;-67
2022/11/14 10:54:08;;;;;;;1.00;1.00;;;9.90;99.90;;;;;;4955459;28;20188;-67
2022/11/14 10:56:34;;;;;;;0.40;0.40;;;10.00;99.90;;;;;;4955837;29;20244;-67
2022/11/14 10:58:59;;;;;;;0.50;0.40;;;10.00;99.90;;;;;;4955451;28;20276;-67
2022/11/14 11:01:42;;;;;;;0.57;0.57;;;10.00;99.90;;;;;;4958529;28;20252;-67
2022/11/14 11:04:44;;;;;;;2.70;0.75;;;9.90;99.90;;;;;;4959385;28;20193;-68
2022/11/14 11:11:28;;;;;;;0.70;0.70;;;9.80;99.90;;;;;;4900704;29;20552;-66
2022/11/14 11:12:46;;;;;;;0.40;0.40;;;9.80;99.90;;;;;;4959436;29;20275;-69
2022/11/14 11:15:30;;;;;;;0.40;0.40;;;9.80;99.90;;;;;;4958990;28;20232;-66
2022/11/14 11:18:22;;;;;;;0.98;0.93;;;9.90;99.90;;;;;;4959720;28;20189;-70
2022/11/14 11:21:00;;;;;;;0.88;0.88;;;10.10;99.90;;;;;;4958743;29;20284;-68
2022/11/14 11:23:27;;;;;;;0.50;0.50;;;10.20;99.90;;;;;;4959554;28;20201;-70
2022/11/14 11:26:27;;;;;;;0.40;0.40;;;10.40;99.90;;;;;;4959307;28;20654;-68
2022/11/14 11:29:16;;;;;;;0.50;0.50;;;10.50;99.90;;;;;;4958918;28;20162;-68
2022/11/14 11:31:53;;;;;;;0.30;0.30;;;10.50;99.90;;;;;;4959117;28;20221;-68
2022/11/14 11:34:31;;;;;;;0.50;0.50;;;10.70;99.90;;;;;;4959033;28;20193;-70
2022/11/14 11:37:12;;;;;;;1.85;0.80;;;10.70;99.90;;;;;;4959343;28;20252;-69
2022/11/14 11:39:49;;;;;;;0.80;0.80;;;10.70;99.90;;;;;;4958774;28;20212;-68
2022/11/14 11:42:33;;;;;;;1.15;1.05;;;10.70;99.90;;;;;;4958739;28;20885;-69
2022/11/14 11:45:18;;;;;;;0.82;0.82;;;10.80;99.90;;;;;;4958176;28;20259;-69
2022/11/14 11:47:56;;;;;;;0.80;0.55;;;10.90;99.90;;;;;;4958357;29;20644;-67
2022/11/14 11:50:23;;;;;;;0.60;0.50;;;11.00;99.90;;;;;;4958654;28;20173;-69
2022/11/14 11:52:53;;;;;;;0.55;0.55;;;11.10;99.90;;;;;;4957693;28;20209;-69
2022/11/14 11:55:43;;;;;;;1.17;1.13;;;11.10;99.90;;;;;;4958096;28;20538;-71
2022/11/14 11:58:25;;;;;;;1.23;1.23;;;11.00;99.90;;;;;;4951165;29;20185;-67
2022/11/14 12:00:54;;;;;;;3.22;1.58;;;11.00;99.90;;;;;;4958120;28;20245;-70
2022/11/14 12:03:20;;;;;;;0.80;0.80;;;11.10;99.90;;;;;;4956872;28;20181;-67
2022/11/14 12:05:54;;;;;;;4.30;1.53;;;11.20;99.90;;;;;;4958754;28;20443;-68
2022/11/14 12:08:37;;;;;;;0.90;0.73;;;11.40;99.90;;;;;;4958942;28;20411;-69
2022/11/14 12:11:08;;;;;;;0.52;0.50;;;11.40;99.90;;;;;;4958111;28;20418;-67
2022/11/14 12:13:53;;;;;;;0.90;0.90;;;11.40;99.90;;;;;;4957892;28;20300;-68
2022/11/14 12:16:22;;;;;;;1.13;1.02;;;11.40;99.90;;;;;;4958301;28;20189;-70
2022/11/14 12:18:54;;;;;;;0.80;0.80;;;11.50;99.90;;;;;;4958017;28;20634;-68
2022/11/14 12:21:41;;;;;;;1.23;1.17;;;11.60;99.90;;;;;;4958115;28;20170;-67
2022/11/14 12:24:26;;;;;;;1.90;1.30;;;11.80;99.90;;;;;;4957836;28;20419;-69
2022/11/14 12:27:17;;;;;;;0.70;0.70;;;11.90;99.90;;;;;;4955992;29;20396;-67
2022/11/14 12:30:10;;;;;;;3.57;3.37;;;12.00;99.70;;;;;;4949997;29;20241;-69
2022/11/14 12:32:42;;;;;;;2.45;1.60;;;12.10;99.10;;;;;;4958514;28;20821;-68
2022/11/14 12:35:39;;;;;;;0.60;0.60;;;12.10;98.90;;;;;;4957678;28;20193;-69
2022/11/14 12:38:14;;;;;;;1.43;1.10;;;12.10;98.50;;;;;;4954791;29;20425;-67
2022/11/14 12:40:48;;;;;;;0.80;0.80;;;12.00;98.40;;;;;;4957494;28;20411;-67
2022/11/14 12:43:43;;;;;;;2.97;1.13;;;12.00;98.70;;;;;;4957785;28;20887;-66
2022/11/14 12:46:11;;;;;;;0.80;0.80;;;12.10;98.80;;;;;;4956365;28;20765;-70
2022/11/14 12:48:41;;;;;;;1.23;1.23;;;12.10;98.80;;;;;;4957434;28;20752;-68
2022/11/14 12:51:27;;;;;;;0.95;0.80;;;12.00;99.00;;;;;;4957788;28;20409;-67
2022/11/14 12:53:54;;;;;;;1.63;1.15;;;11.90;99.60;;;;;;4958070;28;20548;-69
2022/11/14 12:56:23;;;;;;;1.80;0.80;;;11.90;99.90;;;;;;4956997;28;20174;-69
2022/11/14 12:59:16;;;;;;;7.47;1.20;;;11.90;99.90;;;;;;4956995;28;20498;-67
2022/11/14 13:01:51;;;;;;;2.00;1.57;;;12.20;99.90;;;;;;4957883;28;20423;-70
2022/11/14 13:04:44;;;;;;;0.80;0.80;;;12.50;99.90;;;;;;4955763;28;20422;-68
2022/11/14 13:07:49;;;;;;;0.70;0.70;;;12.70;99.40;;;;;;4956120;28;20408;-70
2022/11/14 13:10:29;;;;;;;0.93;0.60;;;12.90;99.10;;;;;;4955374;28;20405;-70
2022/11/14 13:21:44;;;;;;;1.07;0.73;;;13.20;97.60;;;;;;4956987;29;20463;-67
2022/11/14 13:24:17;;;;;;;0.50;0.50;;;13.10;97.70;;;;;;4956987;28;20425;-69
2022/11/14 13:26:47;;;;;;;2.33;1.03;;;13.10;97.90;;;;;;4957191;28;20478;-70
2022/11/14 13:29:37;;;;;;;1.40;1.30;;;13.10;97.90;;;;;;4956949;28;20416;-70
2022/11/14 13:32:03;;;;;;;0.80;0.80;;;13.10;97.70;;;;;;4956705;28;20456;-71
2022/11/14 13:34:51;;;;;;;1.20;1.13;;;13.10;97.90;;;;;;4955427;28;20440;-71
2022/11/14 13:37:39;;;;;;;0.97;0.57;;;13.10;98.10;;;;;;4957121;28;20154;-69
2022/11/14 13:40:59;;;;;;;1.03;0.70;;;13.00;98.10;;;;;;4955235;29;20989;-70
2022/11/14 13:43:48;;;;;;;1.10;1.10;;;12.90;98.20;;;;;;4897843;29;20415;-71
2022/11/14 13:46:46;;;;;;;1.07;0.50;;;12.70;98.40;;;;;;4956676;28;20398;-72
2022/11/14 13:49:30;;;;;;;0.93;0.87;;;12.60;98.70;;;;;;4956265;28;20407;-71
2022/11/14 13:51:56;;;;;;;2.03;1.30;;;12.60;98.90;;;;;;4956784;28;20448;-71
2022/11/14 13:54:21;;;;;;;1.10;1.10;;;12.50;99.00;;;;;;4956564;28;20499;-68
2022/11/14 13:57:04;;;;;;;0.50;0.50;;;12.40;99.20;;;;;;4956273;28;20438;-69
2022/11/14 13:59:48;;;;;;;1.73;1.67;;;12.30;99.60;;;;;;4956245;28;20186;-71
2022/11/14 14:02:20;;;;;;;1.07;1.07;;;12.30;99.90;;;;;;4956600;28;20405;-70
2022/11/14 14:05:04;;;;;;;1.77;1.07;;;12.30;99.90;;;;;;4956147;28;20795;-72
2022/11/14 14:07:29;;;;;;;0.53;0.53;;;12.10;99.90;;;;;;4956575;28;20416;-69
2022/11/14 14:10:07;;;;;;;3.40;1.40;;;12.00;99.90;;;;;;4956226;28;20413;-70
2022/11/14 14:12:58;;;;;;;0.60;0.60;;;11.90;99.90;;;;;;4956462;28;20204;-69
2022/11/14 14:15:34;;;;;;;1.55;1.45;;;11.90;99.90;;;;;;4956079;28;20432;-69
2022/11/14 14:18:22;;;;;;;1.02;0.93;;;11.90;99.90;;;;;;4956112;28;20178;-68
2022/11/14 14:21:04;;;;;;;0.40;0.40;;;11.80;99.90;;;;;;4956147;28;20282;-69
2022/11/14 14:23:36;;;;;;;2.55;1.42;;;11.80;99.90;;;;;;4956216;28;20169;-69
2022/11/14 14:26:20;;;;;;;1.17;1.07;;;11.70;99.90;;;;;;4955842;28;20235;-71
2022/11/14 14:28:46;;;;;;;0.57;0.57;;;11.60;99.90;;;;;;4955809;29;20443;-70
2022/11/14 14:31:14;;;;;;;0.53;0.53;;;11.60;99.90;;;;;;4956175;28;20726;-71
2022/11/14 14:33:45;;;;;;;0.75;0.75;;;11.60;99.90;;;;;;4956022;28;20652;-68
2022/11/14 14:36:25;;;;;;;1.42;1.33;;;11.40;99.90;;;;;;4955178;28;20177;-71
2022/11/14 14:39:18;;;;;;;0.38;0.38;;;11.40;99.90;;;;;;4955039;28;20591;-70
2022/11/14 14:41:45;;;;;;;0.75;0.75;;;11.30;99.90;;;;;;4955949;28;20212;-69
2022/11/14 14:44:37;;;;;;;1.38;1.27;;;11.30;99.90;;;;;;4955567;28;20252;-68
2022/11/14 14:47:29;;;;;;;0.40;0.40;;;11.20;99.90;;;;;;4955551;28;20184;-71
2022/11/14 14:49:55;;;;;;;0.50;0.50;;;11.20;99.90;;;;;;4954722;28;20165;-70
2022/11/14 14:52:41;;;;;;;0.30;0.30;;;11.20;99.90;;;;;;4955557;28;20209;-72
2022/11/14 14:55:21;;;;;;;1.33;1.33;;;11.20;99.90;;;;;;4955473;28;20568;-70
2022/11/14 14:57:47;;;;;;;2.15;1.50;;;11.10;99.90;;;;;;4956008;28;20169;-69
2022/11/14 15:00:16;;;;;;;0.50;0.50;;;11.10;99.90;;;;;;4955576;28;20612;-68
2022/11/14 15:02:44;;;;;;;0.40;0.40;;;11.10;99.90;;;;;;4956164;28;20216;-70
2022/11/14 15:05:20;;;;;;;2.30;1.13;;;11.10;99.90;;;;;;4953999;28;20201;-70
2022/11/14 15:07:48;;;;;;;0.80;0.80;;;11.10;99.90;;;;;;4955622;28;20244;-70
2022/11/14 15:10:28;;;;;;;0.45;0.45;;;11.10;99.90;;;;;;4955360;28;20228;-68
2022/11/14 15:12:55;;;;;;;0.60;0.60;;;11.00;99.90;;;;;;4955700;28;20201;-71
2022/11/14 15:15:24;;;;;;;0.50;0.50;;;11.00;99.90;;;;;;4955529;28;20593;-69
2022/11/14 15:17:51;;;;;;;1.08;1.08;;;11.00;99.90;;;;;;4955774;28;20596;-70
2022/11/14 15:20:26;;;;;;;1.58;1.13;;;11.00;99.90;;;;;;4954813;28;20257;-71
2022/11/14 15:23:04;;;;;;;0.40;0.40;;;11.00;99.90;;;;;;4955104;28;20169;-70
2022/11/14 15:25:30;;;;;;;0.75;0.50;;;10.90;99.90;;;;;;4955189;28;20730;-70
2022/11/14 15:27:59;;;;;;;0.50;0.50;;;10.80;99.90;;;;;;4955555;28;20257;-67
2022/11/14 15:30:30;;;;;;;0.40;0.40;;;10.80;99.90;;;;;;4955051;28;20468;-70
2022/11/14 15:32:58;;;;;;;0.30;0.30;;;10.70;99.90;;;;;;4955431;28;20236;-71
2022/11/14 15:35:33;;;;;;;0.43;0.43;;;10.60;99.90;;;;;;4955018;28;20190;-70
2022/11/14 15:38:20;;;;;;;0.63;0.63;;;10.50;99.90;;;;;;4955545;28;20194;-71
2022/11/14 15:41:19;;;;;;;1.38;1.27;;;10.40;99.90;;;;;;4954826;28;20642;-70